Terminal Aerodrome Forecast
Issued by NWS

Home | Current Version | Previous Version | Text Only | Print | Product List | Glossary On
Versions: 1 2 3 4 5 6 7 8 9 10 11 12 13 14 15 16 17 18 19 20 21
082
FTUS43 KPAH 272231 AAC
TAFCGI
TAF AMD
KCGI 272231Z 2723/2818 19008KT P6SM VCTS SCT025CB BKN035
      TEMPO 2723/2801 VRB30G60KT 3/4SM +TSRA BR BKN015CB OVC050
     FM280100 19007KT 4SM -TSRA BKN025CB
     FM280600 19005KT P6SM SCT020 BKN040=

USA.gov is the U.S. government's official web portal to all federal, state and local government web resources and services.